NCAR-RAP Real-Time Weather Data

Output produced by METARs form (12 August 2020  18:39 UTC)
found at http://weather.rap.ucar.edu/surface/
 
KORD 121751Z 10006KT 10SM FEW250 29/11 A3011 RMK AO2 SLP190 T02890111 10289 20189 50000
KORD 121651Z 09010G18KT 10SM FEW250 29/11 A3011 RMK AO2 SLP192 T02890106
KORD 121551Z 07009KT 10SM FEW250 28/10 A3011 RMK AO2 SLP191 T02780100
KORD 121451Z 07006KT 10SM FEW250 27/11 A3011 RMK AO2 SLP190 T02670111 58004
KORD 121351Z 05003KT 10SM FEW250 25/12 A3012 RMK AO2 SLP195 T02500122
KORD 121251Z 00000KT 10SM FEW250 23/13 A3012 RMK AO2 SLP196 T02280133
KORD 121151Z 00000KT 10SM FEW250 19/14 A3012 RMK AO2 SLP195 T01890144 10206 20178 53014
KORD 121051Z 26003KT 10SM FEW250 18/14 A3011 RMK AO2 SLP191 T01780144
KORD 120951Z 00000KT 10SM SCT250 18/14 A3009 RMK AO2 SLP184 T01780144
KORD 120851Z 00000KT 10SM BKN250 18/14 A3008 RMK AO2 SLP181 T01830144 53010
KORD 120751Z 00000KT 10SM BKN250 19/14 A3007 RMK AO2 SLP177 T01890144
KORD 120651Z 00000KT 10SM BKN250 19/14 A3005 RMK AO2 SLP172 T01940139
KORD 120551Z 00000KT 10SM SCT250 21/14 A3005 RMK AO2 SLP171 T02060139 10267 20206 402940189 53007
KORD 120451Z 18003KT 10SM BKN250 21/13 A3004 RMK AO2 SLP167 T02110133
KORD 120351Z 00000KT 10SM BKN250 22/12 A3004 RMK AO2 SLP167 T02220122
KORD 120251Z 13004KT 10SM BKN250 23/12 A3003 RMK AO2 SLP164 T02330117 52007
KORD 120151Z 10005KT 10SM BKN250 24/11 A3003 RMK AO2 SLP163 T02390111
KORD 120051Z 07005KT 10SM SCT200 BKN250 26/11 A3001 RMK AO2 SLP158 T02560111
KORD 112351Z 09006KT 10SM FEW070 BKN250 27/11 A3001 RMK AO2 SLP157 T02670111 10294 20267 53001
KORD 112251Z 10007KT 10SM FEW070 BKN250 27/12 A3000 RMK AO2 SLP156 T02720117
KORD 112151Z 07005KT 10SM BKN250 28/11 A3001 RMK AO2 SLP156 T02780111
KORD 112051Z 09008KT 10SM FEW070 SCT250 29/12 A3001 RMK AO2 SLP156 T02890117 53000
KORD 111951Z 10008KT 10SM SCT250 29/12 A3000 RMK AO2 SLP152 T02940117
KORD 111851Z 09007KT 10SM FEW070 FEW250 29/11 A3000 RMK AO2 SLP153 T02890111
KORD 111751Z 12006KT 10SM FEW070 FEW250 28/11 A3000 RMK AO2 SLP156 T02780106 10289 20200 50000
KORD 111651Z 04003KT 10SM FEW050 FEW250 28/11 A3001 RMK AO2 SLP158 T02780111
KORD 111551Z 04005KT 10SM FEW050 FEW250 27/12 A3001 RMK AO2 SLP158 T02670117
KORD 111451Z 04005KT 10SM FEW050 25/14 A3000 RMK AO2 SLP155 T02500144 52016
KORD 111351Z 35008KT 10SM FEW035 23/16 A2999 RMK AO2 SLP150 T02330161
KORD 111251Z 35007KT 10SM SCT032 SCT250 22/17 A2997 RMK AO2 SLP144 T02170172
KORD 111151Z 33005KT 10SM FEW030 FEW250 20/17 A2995 RMK AO2 SLP140 70041 T02000172 10206 20189 53010 $
KORD 111051Z 29004KT 10SM FEW030 FEW250 19/18 A2994 RMK AO2 SLP136 T01940178 $
KORD 110951Z 25006KT 10SM FEW031 BKN250 19/18 A2993 RMK AO2 SLP132 T01940178 $
KORD 110851Z 24006KT 10SM BKN031 OVC250 20/18 A2992 RMK AO2 SLP128 T02000183 53008 $
KORD 110751Z 26007KT 10SM BKN017 OVC250 20/18 A2991 RMK AO2 SLP121 T02000183 $
KORD 110651Z 24006KT 10SM OVC250 21/18 A2989 RMK AO2 SLP116 T02060183 $
KORD 110551Z 23006KT 10SM SCT250 21/18 A2990 RMK AO2 SLP119 T02060183 10244 20206 403280206 56002 $
KORD 110451Z 26006KT 10SM BKN250 21/18 A2990 RMK AO2 SLP120 T02110183 $
KORD 110351Z 30007KT 10SM FEW027 SCT250 22/18 A2989 RMK AO2 SLP115 T02170183 $
KORD 110251Z 28007KT 10SM SCT020 SCT035 BKN250 22/19 A2991 RMK AO2 SLP121 T02220189 51036 $
KORD 110151Z 27011KT 10SM SCT032 BKN250 23/19 A2990 RMK AO2 SLP119 T02280189 $
KORD 110051Z 24005KT 10SM FEW150 SCT200 BKN250 23/20 A2982 RMK AO2 PRESRR SLP094 T02330200 $
KORD 102351Z 18005KT 10SM FEW110 FEW150 SCT200 BKN250 24/19 A2980 RMK AO2 SLP085 60041 T02440194 10328 20217 58021
KORD 102251Z 03005KT 10SM FEW050 SCT110 BKN150 OVC250 23/18 A2983 RMK AO2 PK WND 31037/2152 RAE42 TSE06B08E24 SLP096 P0002 T02330183
KORD 102225Z 31014G23KT 10SM -RA FEW050 BKN110 BKN150 OVC250 23/19 A2987 RMK AO2 PK WND 31037/2152 LTG DSNT E-S TSE06B08E24 P0002 T02280189
KORD 102151Z 30024G41KT 8SM TSRA FEW019 SCT045CB OVC100 22/19 A2993 RMK AO2 PK WND 25045/2113 WSHFT 2045 LTG DSNT ALQDS SLP129 OCNL LTGICCC ALQDS TS ALQDS MOV E P0034 T02220194
KORD 102144Z 30027G44KT 6SM TSRA BR SCT019 BKN045CB OVC100 22/19 A2994 RMK AO2 PK WND 25045/2113 WSHFT 2045 LTG DSNT ALQDS OCNL LTGICCC ALQDS TS ALQDS MOV E P0032 T02170194
KORD 102133Z 28026G43KT 6SM TSRA SCT017 BKN023CB OVC100 22/19 A2994 RMK AO2 PK WND 25045/2113 WSHFT 2045 LTG DSNT ALQDS OCNL LTGICCC ALQDS TS ALQDS MOV E P0029 T02220194
KORD 102105Z 26019G41KT 5SM R10L/4000VP6000FT TSRA SCT021 BKN035CB OVC070 22/19 A2988 RMK AO2 PK WND 27041/2055 WSHFT 2045 LTG DSNT ALQDS PRESRR FRQ LTGICCCCG OHD TS OHD MOV E P0026 T02220194
KORD 102100Z 25022G41KT 2SM R10L/3000VP6000FT +TSRA SCT021 BKN035CB OVC050 23/19 A2987 RMK AO2 PK WND 27041/2055 WSHFT 2045 LTG DSNT ALQDS FRQ LTGICCCCG OHD TS OHD MOV E P0025 T02280194
KORD 102051Z 28031G54KT 1/2SM R10L/4000VP6000FT +TSRA BKN035CB BKN050 BKN070 OVC200 27/22 A2986 RMK AO2 PK WND 27054/2049 LTG DSNT ALQDS RAB38 TSB38 PRESRR SLP105 FRQ LTGICCCCG OHD TS OHD MOV E P0005 60005 T02720222 53005
KORD 102049Z 25031G54KT 1/2SM R10L/4500VP6000FT +TSRA BKN035 BKN050 BKN070 OVC200 30/23 A2985 RMK AO2 PK WND 27054/2049 LTG DSNT ALQDS RAB38 TSB38 PRESRR FRQ LTGICCCCG OHD TS OHD MOV E P0000
KORD 102039Z 20007KT 10SM -TSRA FEW002 SCT035 BKN050 OVC200 31/23 A2981 RMK AO2 LTG DSNT S-NW RAB38 TSB38 PRESFR FRQ LTGIC SW-NW TS SW-NW MOV E FU FEW002 P0000 T03110233
KORD 102028Z 19011KT 10SM FEW002 BKN035 BKN050 OVC200 32/23 A2982 RMK AO2 LTG DSNT SW-NW FU FEW002 T03170233
KORD 101951Z 18009KT 10SM BKN033 BKN055 OVC200 32/24 A2982 RMK AO2 SLP091 T03170239
KORD 101851Z 22007KT 10SM BKN031 OVC042 32/23 A2984 RMK AO2 SLP099 T03170228